Carcassonne Airport

LFMK · Aude, Occitanie, 法国

使用的METAR站距离机场86 km。
罗盘
风向 的 风向 280° Carcassonne Airport 10/28
风: 13 kt, 4 beaufort

13 kt

1 kt
改变
0 ft 1.000 2.000 3.000 4.000 5.000
Cloud Cloud Cloud Cloud Cloud Cloud Cloud Cloud
OVC 3.000
METAR LFMU 030500Z AUTO 28013KT 9000 RA OVC030/// ///TCU 04/03 Q0998 BECMG 26015G25KT NSW FEW018 BKN045

METAR Carcassonne Airport - LFMK/CCF

Carcassonne Airport是,法国中的中型机场。 该机场位于纬度43,21635和经度2,30789。 该机场有2条跑道: 10/28 和 10L/28R. 本场的ICAO机场代码为LFMK。 该机场的IATA代码为CCF。 机场在Marseille FIR中。

该航空气象观测是针对Béziers-Vias Airport在2024年3月3日 06:00, 当地时间进行的。

机场观察

风向为280°,速度为13 kt。

可见度为9 km。

有乌云密布在3.000 ft的高度。 破损或更高的上限为3.000 ft。

当前天气为雨。 温度为4 °C,阵风为-3 °C。 露点为3 °C,相对湿度为93%。 海平面上的气压为998 hPa (QNH)。

发展趋势

  • 变得

    风来自260°方向,速度为15 kt。 预计25 kt阵风。 没有观察到明显的天气, 几云在1.800 ft的高度 和 碎云在4.500 ft的高度.

白天

今天,太阳从07:22升起,在18:42降落。 这适用于Carcassonne Airport,世界夏令时可能有所不同。 当地时间与世界标准时间之间的时差为+1 小时。 当前,没有夏令时有效。

公司介绍

在这个机场,你可以找到飞行俱乐部。 本场上唯一已知的公司是Aéroclub de Pilotes Audois。

体会

到Vliegles.nl去找飞行课程,跳伞和其他飞行体验。 浏览页面,了解Carcassonne Airport附近所有可用的活动。 你也可以使用搜索功能来寻找你所在地附近的特定飞行课程、跳伞或其他飞行体验。

跑道

Id 标题 侧风 逆风 侧风 %
10/28 096°-276° 13 kt 7 %
10L/28R 096°-276° 13 kt 7 %

逆风成分最大的方向会被突出显示,并用于横风计算。 这并不一定意味着这个方向在使用。

乌云

3.000 ft OVC 乌云密布
- NSW 变得 没有观察到明显的天气
1.800 ft FEW 变得 几云
4.500 ft BKN 变得 碎云

温度 & 天气

天气
温度 4 °C
露点 3 °C
相对湿度 93%
风寒 -3 °C
Kp-index 0 (0-9)

白天

日出
07:18 (50m)
中午
12:58
日落
18:38

小工具

你想在你的网站上有一个关于Carcassonne Airport的当前航空天气(METAR)的小部件吗?

显示HTML代码
?>